sensor_id;sensor_type;location;lat;lon;timestamp;P1;durP1;ratioP1;P2;durP2;ratioP2
17854;SDS011;9053;53.358;6.382;2023-07-13T00:02:22;5.57;;;2.67;;
17854;SDS011;9053;53.358;6.382;2023-07-13T00:04:56;6.22;;;2.80;;
17854;SDS011;9053;53.358;6.382;2023-07-13T00:07:26;4.53;;;2.40;;
17854;SDS011;9053;53.358;6.382;2023-07-13T00:09:58;5.57;;;2.42;;
17854;SDS011;9053;53.358;6.382;2023-07-13T00:12:30;6.50;;;2.90;;
17854;SDS011;9053;53.358;6.382;2023-07-13T00:15:02;5.75;;;2.47;;
17854;SDS011;9053;53.358;6.382;2023-07-13T00:17:34;9.90;;;2.75;;
17854;SDS011;9053;53.358;6.382;2023-07-13T00:20:08;5.72;;;2.45;;
17854;SDS011;9053;53.358;6.382;2023-07-13T00:22:39;6.53;;;2.42;;
17854;SDS011;9053;53.358;6.382;2023-07-13T00:25:09;6.90;;;2.75;;
17854;SDS011;9053;53.358;6.382;2023-07-13T00:27:43;5.97;;;2.80;;
17854;SDS011;9053;53.358;6.382;2023-07-13T00:30:15;5.53;;;2.47;;
17854;SDS011;9053;53.358;6.382;2023-07-13T00:32:45;9.07;;;2.95;;
17854;SDS011;9053;53.358;6.382;2023-07-13T00:35:17;8.68;;;2.67;;
17854;SDS011;9053;53.358;6.382;2023-07-13T00:37:48;7.43;;;2.67;;
17854;SDS011;9053;53.358;6.382;2023-07-13T00:40:18;5.68;;;2.85;;
17854;SDS011;9053;53.358;6.382;2023-07-13T00:42:48;7.78;;;3.17;;
17854;SDS011;9053;53.358;6.382;2023-07-13T00:48:31;6.50;;;2.63;;
17854;SDS011;9053;53.358;6.382;2023-07-13T00:51:06;5.00;;;2.33;;
17854;SDS011;9053;53.358;6.382;2023-07-13T00:53:36;8.85;;;2.97;;
17854;SDS011;9053;53.358;6.382;2023-07-13T00:56:06;5.30;;;2.25;;
17854;SDS011;9053;53.358;6.382;2023-07-13T00:58:37;4.82;;;2.22;;
17854;SDS011;9053;53.358;6.382;2023-07-13T01:01:08;6.63;;;3.15;;
17854;SDS011;9053;53.358;6.382;2023-07-13T01:03:39;6.63;;;2.35;;
17854;SDS011;9053;53.358;6.382;2023-07-13T01:06:12;5.43;;;2.75;;
17854;SDS011;9053;53.358;6.382;2023-07-13T01:08:44;6.80;;;2.92;;
17854;SDS011;9053;53.358;6.382;2023-07-13T01:11:17;6.32;;;2.80;;
17854;SDS011;9053;53.358;6.382;2023-07-13T01:13:49;4.40;;;2.40;;
17854;SDS011;9053;53.358;6.382;2023-07-13T01:16:22;6.88;;;2.45;;
17854;SDS011;9053;53.358;6.382;2023-07-13T01:18:55;5.45;;;2.20;;
17854;SDS011;9053;53.358;6.382;2023-07-13T01:21:32;4.85;;;2.00;;
17854;SDS011;9053;53.358;6.382;2023-07-13T01:24:05;3.08;;;1.85;;
17854;SDS011;9053;53.358;6.382;2023-07-13T01:26:35;2.75;;;1.60;;
17854;SDS011;9053;53.358;6.382;2023-07-13T01:29:05;2.90;;;1.75;;
17854;SDS011;9053;53.358;6.382;2023-07-13T01:31:35;5.32;;;1.70;;
17854;SDS011;9053;53.358;6.382;2023-07-13T01:34:06;4.78;;;1.90;;
17854;SDS011;9053;53.358;6.382;2023-07-13T01:36:38;2.35;;;1.40;;
17854;SDS011;9053;53.358;6.382;2023-07-13T01:39:08;3.25;;;1.40;;
17854;SDS011;9053;53.358;6.382;2023-07-13T01:41:38;4.43;;;1.40;;
17854;SDS011;9053;53.358;6.382;2023-07-13T01:44:08;3.40;;;1.55;;
17854;SDS011;9053;53.358;6.382;2023-07-13T01:46:38;4.53;;;1.42;;
17854;SDS011;9053;53.358;6.382;2023-07-13T01:49:08;1.83;;;1.10;;
17854;SDS011;9053;53.358;6.382;2023-07-13T01:51:40;4.38;;;1.30;;
17854;SDS011;9053;53.358;6.382;2023-07-13T01:54:12;2.80;;;1.20;;
17854;SDS011;9053;53.358;6.382;2023-07-13T01:56:42;2.08;;;1.20;;
17854;SDS011;9053;53.358;6.382;2023-07-13T01:59:12;2.63;;;1.15;;
17854;SDS011;9053;53.358;6.382;2023-07-13T02:01:42;2.63;;;1.35;;
17854;SDS011;9053;53.358;6.382;2023-07-13T02:04:12;1.42;;;0.90;;
17854;SDS011;9053;53.358;6.382;2023-07-13T02:06:45;2.05;;;1.10;;
17854;SDS011;9053;53.358;6.382;2023-07-13T02:09:15;2.13;;;1.00;;
17854;SDS011;9053;53.358;6.382;2023-07-13T02:11:45;2.20;;;1.00;;
17854;SDS011;9053;53.358;6.382;2023-07-13T02:14:15;2.70;;;0.98;;
17854;SDS011;9053;53.358;6.382;2023-07-13T02:16:45;1.30;;;0.90;;
17854;SDS011;9053;53.358;6.382;2023-07-13T02:19:15;1.73;;;1.00;;
17854;SDS011;9053;53.358;6.382;2023-07-13T02:21:47;3.35;;;1.00;;
17854;SDS011;9053;53.358;6.382;2023-07-13T02:24:17;2.05;;;0.85;;
17854;SDS011;9053;53.358;6.382;2023-07-13T02:26:48;3.00;;;1.15;;
17854;SDS011;9053;53.358;6.382;2023-07-13T02:29:18;2.03;;;1.15;;
17854;SDS011;9053;53.358;6.382;2023-07-13T02:31:48;3.28;;;0.90;;
17854;SDS011;9053;53.358;6.382;2023-07-13T02:34:18;2.70;;;1.00;;
17854;SDS011;9053;53.358;6.382;2023-07-13T02:36:50;2.22;;;1.27;;
17854;SDS011;9053;53.358;6.382;2023-07-13T02:39:20;2.33;;;0.98;;
17854;SDS011;9053;53.358;6.382;2023-07-13T02:41:50;1.48;;;1.00;;
17854;SDS011;9053;53.358;6.382;2023-07-13T02:44:22;1.63;;;1.00;;
17854;SDS011;9053;53.358;6.382;2023-07-13T02:46:52;2.35;;;0.90;;
17854;SDS011;9053;53.358;6.382;2023-07-13T02:49:22;2.15;;;0.80;;
17854;SDS011;9053;53.358;6.382;2023-07-13T02:51:54;2.03;;;0.98;;
17854;SDS011;9053;53.358;6.382;2023-07-13T02:54:26;2.08;;;0.98;;
17854;SDS011;9053;53.358;6.382;2023-07-13T02:56:56;3.35;;;1.00;;
17854;SDS011;9053;53.358;6.382;2023-07-13T02:59:26;1.65;;;0.85;;
17854;SDS011;9053;53.358;6.382;2023-07-13T03:01:56;3.08;;;1.00;;
17854;SDS011;9053;53.358;6.382;2023-07-13T03:04:26;3.42;;;1.13;;
17854;SDS011;9053;53.358;6.382;2023-07-13T03:06:59;2.58;;;1.30;;
17854;SDS011;9053;53.358;6.382;2023-07-13T03:09:29;3.38;;;1.67;;
17854;SDS011;9053;53.358;6.382;2023-07-13T03:11:59;3.83;;;1.15;;
17854;SDS011;9053;53.358;6.382;2023-07-13T03:14:30;2.92;;;0.80;;
17854;SDS011;9053;53.358;6.382;2023-07-13T03:17:00;2.55;;;1.10;;
17854;SDS011;9053;53.358;6.382;2023-07-13T03:19:30;2.50;;;1.20;;
17854;SDS011;9053;53.358;6.382;2023-07-13T03:22:03;1.98;;;1.17;;
17854;SDS011;9053;53.358;6.382;2023-07-13T03:24:33;3.47;;;1.20;;
17854;SDS011;9053;53.358;6.382;2023-07-13T03:27:05;3.15;;;1.30;;
17854;SDS011;9053;53.358;6.382;2023-07-13T03:29:36;3.45;;;1.23;;
17854;SDS011;9053;53.358;6.382;2023-07-13T03:32:06;3.03;;;1.33;;
17854;SDS011;9053;53.358;6.382;2023-07-13T03:34:36;3.80;;;1.50;;
17854;SDS011;9053;53.358;6.382;2023-07-13T03:37:09;3.10;;;1.30;;
17854;SDS011;9053;53.358;6.382;2023-07-13T03:39:39;3.67;;;1.52;;
17854;SDS011;9053;53.358;6.382;2023-07-13T03:42:09;4.05;;;1.55;;
17854;SDS011;9053;53.358;6.382;2023-07-13T03:44:39;2.35;;;1.40;;
17854;SDS011;9053;53.358;6.382;2023-07-13T03:47:09;4.38;;;1.40;;
17854;SDS011;9053;53.358;6.382;2023-07-13T03:49:38;3.25;;;1.50;;
17854;SDS011;9053;53.358;6.382;2023-07-13T03:52:11;3.58;;;1.70;;
17854;SDS011;9053;53.358;6.382;2023-07-13T03:54:42;3.78;;;1.52;;
17854;SDS011;9053;53.358;6.382;2023-07-13T03:57:12;4.18;;;1.67;;
17854;SDS011;9053;53.358;6.382;2023-07-13T03:59:41;4.20;;;1.83;;
17854;SDS011;9053;53.358;6.382;2023-07-13T04:02:11;2.30;;;1.38;;
17854;SDS011;9053;53.358;6.382;2023-07-13T04:04:43;3.50;;;1.50;;
17854;SDS011;9053;53.358;6.382;2023-07-13T04:07:16;4.38;;;1.95;;
17854;SDS011;9053;53.358;6.382;2023-07-13T04:09:45;3.78;;;1.75;;
17854;SDS011;9053;53.358;6.382;2023-07-13T04:12:15;4.68;;;1.83;;
17854;SDS011;9053;53.358;6.382;2023-07-13T04:14:45;4.03;;;2.10;;
17854;SDS011;9053;53.358;6.382;2023-07-13T04:17:15;4.63;;;2.03;;
17854;SDS011;9053;53.358;6.382;2023-07-13T04:19:45;3.70;;;1.80;;
17854;SDS011;9053;53.358;6.382;2023-07-13T04:22:18;4.40;;;2.05;;
17854;SDS011;9053;53.358;6.382;2023-07-13T04:24:48;4.05;;;1.70;;
17854;SDS011;9053;53.358;6.382;2023-07-13T04:27:18;3.65;;;2.10;;
17854;SDS011;9053;53.358;6.382;2023-07-13T04:29:51;4.95;;;1.70;;
17854;SDS011;9053;53.358;6.382;2023-07-13T04:32:21;4.18;;;2.05;;
17854;SDS011;9053;53.358;6.382;2023-07-13T04:34:51;4.47;;;1.63;;
17854;SDS011;9053;53.358;6.382;2023-07-13T04:37:25;5.32;;;1.95;;
17854;SDS011;9053;53.358;6.382;2023-07-13T04:39:55;3.53;;;2.05;;
17854;SDS011;9053;53.358;6.382;2023-07-13T04:42:25;5.65;;;2.30;;
17854;SDS011;9053;53.358;6.382;2023-07-13T04:44:55;4.15;;;2.08;;
17854;SDS011;9053;53.358;6.382;2023-07-13T04:47:25;5.07;;;2.45;;
17854;SDS011;9053;53.358;6.382;2023-07-13T04:49:55;5.45;;;2.40;;
17854;SDS011;9053;53.358;6.382;2023-07-13T04:52:28;4.30;;;2.20;;
17854;SDS011;9053;53.358;6.382;2023-07-13T04:54:59;6.60;;;2.30;;
17854;SDS011;9053;53.358;6.382;2023-07-13T04:57:29;5.68;;;2.40;;
17854;SDS011;9053;53.358;6.382;2023-07-13T05:00:00;4.28;;;2.17;;
17854;SDS011;9053;53.358;6.382;2023-07-13T05:02:33;7.47;;;2.58;;
17854;SDS011;9053;53.358;6.382;2023-07-13T05:05:03;2.95;;;1.90;;
17854;SDS011;9053;53.358;6.382;2023-07-13T05:07:36;4.97;;;1.83;;
17854;SDS011;9053;53.358;6.382;2023-07-13T05:10:07;6.72;;;2.42;;
17854;SDS011;9053;53.358;6.382;2023-07-13T05:12:39;5.43;;;2.20;;
17854;SDS011;9053;53.358;6.382;2023-07-13T05:15:09;5.72;;;2.28;;
17854;SDS011;9053;53.358;6.382;2023-07-13T05:17:39;7.07;;;3.15;;
17854;SDS011;9053;53.358;6.382;2023-07-13T05:20:10;6.57;;;2.33;;
17854;SDS011;9053;53.358;6.382;2023-07-13T05:22:42;6.15;;;2.00;;
17854;SDS011;9053;53.358;6.382;2023-07-13T05:25:13;5.47;;;2.10;;
17854;SDS011;9053;53.358;6.382;2023-07-13T05:27:43;4.75;;;2.25;;
17854;SDS011;9053;53.358;6.382;2023-07-13T05:30:15;4.68;;;2.08;;
17854;SDS011;9053;53.358;6.382;2023-07-13T05:32:45;6.20;;;2.10;;
17854;SDS011;9053;53.358;6.382;2023-07-13T05:35:15;6.20;;;2.10;;
17854;SDS011;9053;53.358;6.382;2023-07-13T05:37:47;7.25;;;2.30;;
17854;SDS011;9053;53.358;6.382;2023-07-13T05:40:17;4.30;;;2.20;;
17854;SDS011;9053;53.358;6.382;2023-07-13T05:42:47;5.40;;;2.10;;
17854;SDS011;9053;53.358;6.382;2023-07-13T05:45:17;7.05;;;2.55;;
17854;SDS011;9053;53.358;6.382;2023-07-13T05:47:47;4.28;;;2.22;;
17854;SDS011;9053;53.358;6.382;2023-07-13T05:50:17;4.78;;;2.15;;
17854;SDS011;9053;53.358;6.382;2023-07-13T05:52:51;8.43;;;2.30;;
17854;SDS011;9053;53.358;6.382;2023-07-13T05:55:21;6.72;;;2.08;;
17854;SDS011;9053;53.358;6.382;2023-07-13T05:57:51;5.00;;;2.25;;
17854;SDS011;9053;53.358;6.382;2023-07-13T06:00:21;5.78;;;2.15;;
17854;SDS011;9053;53.358;6.382;2023-07-13T06:02:52;4.18;;;1.90;;
17854;SDS011;9053;53.358;6.382;2023-07-13T06:05:22;3.65;;;2.00;;
17854;SDS011;9053;53.358;6.382;2023-07-13T06:07:55;4.20;;;1.85;;
17854;SDS011;9053;53.358;6.382;2023-07-13T06:10:25;2.97;;;1.70;;
17854;SDS011;9053;53.358;6.382;2023-07-13T06:12:55;3.85;;;1.73;;
17854;SDS011;9053;53.358;6.382;2023-07-13T06:15:25;3.03;;;1.50;;
17854;SDS011;9053;53.358;6.382;2023-07-13T06:17:55;3.40;;;1.40;;
17854;SDS011;9053;53.358;6.382;2023-07-13T06:20:25;4.57;;;1.75;;
17854;SDS011;9053;53.358;6.382;2023-07-13T06:22:58;4.13;;;1.35;;
17854;SDS011;9053;53.358;6.382;2023-07-13T06:25:28;3.75;;;1.48;;
17854;SDS011;9053;53.358;6.382;2023-07-13T06:27:58;2.58;;;1.50;;
17854;SDS011;9053;53.358;6.382;2023-07-13T06:30:29;3.63;;;1.52;;
17854;SDS011;9053;53.358;6.382;2023-07-13T06:32:59;3.35;;;1.38;;
17854;SDS011;9053;53.358;6.382;2023-07-13T06:35:28;3.40;;;1.50;;
17854;SDS011;9053;53.358;6.382;2023-07-13T06:38:01;3.40;;;1.35;;
17854;SDS011;9053;53.358;6.382;2023-07-13T06:40:31;3.40;;;1.42;;
17854;SDS011;9053;53.358;6.382;2023-07-13T06:43:02;3.65;;;1.15;;
17854;SDS011;9053;53.358;6.382;2023-07-13T06:45:32;2.38;;;1.20;;
17854;SDS011;9053;53.358;6.382;2023-07-13T06:48:05;3.30;;;1.40;;
17854;SDS011;9053;53.358;6.382;2023-07-13T06:50:35;2.33;;;1.05;;
17854;SDS011;9053;53.358;6.382;2023-07-13T06:53:09;2.53;;;1.20;;
17854;SDS011;9053;53.358;6.382;2023-07-13T06:55:43;2.70;;;1.30;;
17854;SDS011;9053;53.358;6.382;2023-07-13T06:58:14;4.28;;;1.40;;
17854;SDS011;9053;53.358;6.382;2023-07-13T07:00:45;2.45;;;1.23;;
17854;SDS011;9053;53.358;6.382;2023-07-13T07:03:16;4.30;;;1.33;;
17854;SDS011;9053;53.358;6.382;2023-07-13T07:05:46;2.15;;;1.17;;
17854;SDS011;9053;53.358;6.382;2023-07-13T07:08:18;4.85;;;1.48;;
17854;SDS011;9053;53.358;6.382;2023-07-13T07:10:48;2.90;;;1.10;;
17854;SDS011;9053;53.358;6.382;2023-07-13T07:13:20;5.30;;;1.55;;
17854;SDS011;9053;53.358;6.382;2023-07-13T07:15:50;4.15;;;1.50;;
17854;SDS011;9053;53.358;6.382;2023-07-13T07:18:20;2.80;;;1.27;;
17854;SDS011;9053;53.358;6.382;2023-07-13T07:20:51;2.03;;;1.00;;
17854;SDS011;9053;53.358;6.382;2023-07-13T07:23:24;3.90;;;1.25;;
17854;SDS011;9053;53.358;6.382;2023-07-13T07:25:54;3.80;;;1.40;;
17854;SDS011;9053;53.358;6.382;2023-07-13T07:28:24;2.20;;;1.20;;
17854;SDS011;9053;53.358;6.382;2023-07-13T07:31:08;2.50;;;1.10;;
17854;SDS011;9053;53.358;6.382;2023-07-13T07:33:41;2.70;;;1.20;;
17854;SDS011;9053;53.358;6.382;2023-07-13T07:36:11;3.28;;;1.10;;
17854;SDS011;9053;53.358;6.382;2023-07-13T07:38:46;1.65;;;1.30;;
17854;SDS011;9053;53.358;6.382;2023-07-13T07:41:16;1.48;;;1.10;;
17854;SDS011;9053;53.358;6.382;2023-07-13T07:43:49;1.48;;;1.00;;
17854;SDS011;9053;53.358;6.382;2023-07-13T07:46:19;2.08;;;0.95;;
17854;SDS011;9053;53.358;6.382;2023-07-13T07:48:49;2.00;;;1.23;;
17854;SDS011;9053;53.358;6.382;2023-07-13T07:51:19;2.22;;;1.20;;
17854;SDS011;9053;53.358;6.382;2023-07-13T07:53:51;2.15;;;1.00;;
17854;SDS011;9053;53.358;6.382;2023-07-13T07:56:21;2.53;;;1.30;;
17854;SDS011;9053;53.358;6.382;2023-07-13T07:58:54;2.67;;;1.10;;
17854;SDS011;9053;53.358;6.382;2023-07-13T08:01:27;4.95;;;1.20;;
17854;SDS011;9053;53.358;6.382;2023-07-13T08:04:00;2.00;;;1.13;;
17854;SDS011;9053;53.358;6.382;2023-07-13T08:06:32;1.58;;;0.90;;
17854;SDS011;9053;53.358;6.382;2023-07-13T08:09:09;2.08;;;1.02;;
17854;SDS011;9053;53.358;6.382;2023-07-13T08:11:39;2.33;;;1.30;;
17854;SDS011;9053;53.358;6.382;2023-07-13T08:14:11;3.33;;;1.42;;
17854;SDS011;9053;53.358;6.382;2023-07-13T08:16:42;1.63;;;0.98;;
17854;SDS011;9053;53.358;6.382;2023-07-13T08:19:12;3.20;;;1.25;;
17854;SDS011;9053;53.358;6.382;2023-07-13T08:21:42;2.22;;;1.20;;
17854;SDS011;9053;53.358;6.382;2023-07-13T08:24:17;2.08;;;1.10;;
17854;SDS011;9053;53.358;6.382;2023-07-13T08:26:47;4.22;;;1.67;;
17854;SDS011;9053;53.358;6.382;2023-07-13T08:29:17;2.47;;;1.10;;
17854;SDS011;9053;53.358;6.382;2023-07-13T08:31:47;2.60;;;1.40;;
17854;SDS011;9053;53.358;6.382;2023-07-13T08:34:17;2.40;;;1.40;;
17854;SDS011;9053;53.358;6.382;2023-07-13T08:36:47;4.30;;;1.52;;
17854;SDS011;9053;53.358;6.382;2023-07-13T08:39:19;2.13;;;1.60;;
17854;SDS011;9053;53.358;6.382;2023-07-13T08:41:50;4.13;;;1.58;;
17854;SDS011;9053;53.358;6.382;2023-07-13T08:44:29;4.15;;;1.25;;
17854;SDS011;9053;53.358;6.382;2023-07-13T08:47:06;2.05;;;1.23;;
17854;SDS011;9053;53.358;6.382;2023-07-13T08:49:39;3.00;;;1.30;;
17854;SDS011;9053;53.358;6.382;2023-07-13T08:52:17;2.10;;;1.20;;
17854;SDS011;9053;53.358;6.382;2023-07-13T08:55:05;1.63;;;0.95;;
17854;SDS011;9053;53.358;6.382;2023-07-13T08:57:44;4.45;;;1.52;;
17854;SDS011;9053;53.358;6.382;2023-07-13T09:00:23;3.38;;;1.30;;
17854;SDS011;9053;53.358;6.382;2023-07-13T09:03:04;1.98;;;1.20;;
17854;SDS011;9053;53.358;6.382;2023-07-13T09:05:47;2.88;;;1.40;;
17854;SDS011;9053;53.358;6.382;2023-07-13T09:08:29;2.45;;;1.20;;
17854;SDS011;9053;53.358;6.382;2023-07-13T09:11:14;3.30;;;1.52;;
17854;SDS011;9053;53.358;6.382;2023-07-13T09:13:55;3.08;;;1.40;;
17854;SDS011;9053;53.358;6.382;2023-07-13T09:16:33;3.28;;;1.73;;
17854;SDS011;9053;53.358;6.382;2023-07-13T09:19:06;3.63;;;1.58;;
17854;SDS011;9053;53.358;6.382;2023-07-13T09:21:51;3.63;;;1.58;;
17854;SDS011;9053;53.358;6.382;2023-07-13T09:24:28;4.55;;;1.70;;
17854;SDS011;9053;53.358;6.382;2023-07-13T09:27:14;2.63;;;1.30;;
17854;SDS011;9053;53.358;6.382;2023-07-13T09:29:49;2.88;;;1.80;;
17854;SDS011;9053;53.358;6.382;2023-07-13T09:32:31;2.83;;;1.25;;
17854;SDS011;9053;53.358;6.382;2023-07-13T09:35:05;2.58;;;1.13;;
17854;SDS011;9053;53.358;6.382;2023-07-13T09:37:39;4.03;;;1.45;;
17854;SDS011;9053;53.358;6.382;2023-07-13T09:40:15;2.63;;;1.10;;
17854;SDS011;9053;53.358;6.382;2023-07-13T09:42:55;2.20;;;1.10;;
17854;SDS011;9053;53.358;6.382;2023-07-13T09:45:30;2.80;;;1.10;;
17854;SDS011;9053;53.358;6.382;2023-07-13T09:48:05;1.55;;;0.85;;
17854;SDS011;9053;53.358;6.382;2023-07-13T09:50:36;5.05;;;1.38;;
17854;SDS011;9053;53.358;6.382;2023-07-13T09:53:11;1.92;;;0.98;;
17854;SDS011;9053;53.358;6.382;2023-07-13T09:55:42;1.42;;;1.00;;
17854;SDS011;9053;53.358;6.382;2023-07-13T09:58:21;1.83;;;0.95;;
17854;SDS011;9053;53.358;6.382;2023-07-13T10:00:54;3.60;;;1.20;;
17854;SDS011;9053;53.358;6.382;2023-07-13T10:03:27;2.95;;;1.25;;
17854;SDS011;9053;53.358;6.382;2023-07-13T10:06:10;2.55;;;1.20;;
17854;SDS011;9053;53.358;6.382;2023-07-13T10:08:46;2.55;;;1.00;;
17854;SDS011;9053;53.358;6.382;2023-07-13T10:11:23;3.03;;;1.10;;
17854;SDS011;9053;53.358;6.382;2023-07-13T10:14:00;2.25;;;0.80;;
17854;SDS011;9053;53.358;6.382;2023-07-13T10:16:32;1.52;;;0.70;;
17854;SDS011;9053;53.358;6.382;2023-07-13T10:19:05;2.22;;;0.90;;
17854;SDS011;9053;53.358;6.382;2023-07-13T10:21:46;2.03;;;0.80;;
17854;SDS011;9053;53.358;6.382;2023-07-13T10:24:22;1.50;;;0.70;;
17854;SDS011;9053;53.358;6.382;2023-07-13T10:26:55;1.48;;;0.90;;
17854;SDS011;9053;53.358;6.382;2023-07-13T10:29:34;2.55;;;0.80;;
17854;SDS011;9053;53.358;6.382;2023-07-13T10:32:08;1.33;;;0.85;;
17854;SDS011;9053;53.358;6.382;2023-07-13T10:34:40;2.67;;;1.00;;
17854;SDS011;9053;53.358;6.382;2023-07-13T10:37:17;1.90;;;0.88;;
17854;SDS011;9053;53.358;6.382;2023-07-13T10:39:51;2.38;;;0.90;;
17854;SDS011;9053;53.358;6.382;2023-07-13T10:42:29;1.73;;;1.10;;
17854;SDS011;9053;53.358;6.382;2023-07-13T10:45:08;1.90;;;1.00;;
17854;SDS011;9053;53.358;6.382;2023-07-13T10:47:43;1.67;;;1.00;;
17854;SDS011;9053;53.358;6.382;2023-07-13T10:50:15;1.42;;;1.17;;
17854;SDS011;9053;53.358;6.382;2023-07-13T10:52:49;2.92;;;1.05;;
17854;SDS011;9053;53.358;6.382;2023-07-13T10:55:35;3.05;;;1.20;;
17854;SDS011;9053;53.358;6.382;2023-07-13T10:58:14;1.52;;;0.90;;
17854;SDS011;9053;53.358;6.382;2023-07-13T11:00:56;4.30;;;1.23;;
17854;SDS011;9053;53.358;6.382;2023-07-13T11:03:28;3.67;;;1.17;;
17854;SDS011;9053;53.358;6.382;2023-07-13T11:06:07;5.10;;;1.52;;
17854;SDS011;9053;53.358;6.382;2023-07-13T11:08:50;3.00;;;1.17;;
17854;SDS011;9053;53.358;6.382;2023-07-13T11:11:32;2.97;;;1.40;;
17854;SDS011;9053;53.358;6.382;2023-07-13T11:14:13;4.47;;;1.38;;
17854;SDS011;9053;53.358;6.382;2023-07-13T11:16:58;2.20;;;1.20;;
17854;SDS011;9053;53.358;6.382;2023-07-13T11:23:06;2.72;;;1.45;;
17854;SDS011;9053;53.358;6.382;2023-07-13T11:25:56;5.13;;;1.45;;
17854;SDS011;9053;53.358;6.382;2023-07-13T11:28:30;2.58;;;1.20;;
17854;SDS011;9053;53.358;6.382;2023-07-13T11:31:02;3.00;;;1.40;;
17854;SDS011;9053;53.358;6.382;2023-07-13T11:34:01;2.97;;;1.55;;
17854;SDS011;9053;53.358;6.382;2023-07-13T11:36:32;3.55;;;1.42;;
17854;SDS011;9053;53.358;6.382;2023-07-13T11:39:18;3.25;;;1.50;;
17854;SDS011;9053;53.358;6.382;2023-07-13T11:41:53;3.90;;;1.40;;
17854;SDS011;9053;53.358;6.382;2023-07-13T11:44:26;3.00;;;1.60;;
17854;SDS011;9053;53.358;6.382;2023-07-13T11:46:59;2.65;;;1.30;;
17854;SDS011;9053;53.358;6.382;2023-07-13T11:49:42;3.60;;;1.48;;
17854;SDS011;9053;53.358;6.382;2023-07-13T11:52:14;3.30;;;1.48;;
17854;SDS011;9053;53.358;6.382;2023-07-13T11:54:47;3.03;;;1.38;;
17854;SDS011;9053;53.358;6.382;2023-07-13T11:57:23;2.65;;;1.33;;
17854;SDS011;9053;53.358;6.382;2023-07-13T11:59:55;3.00;;;1.20;;
17854;SDS011;9053;53.358;6.382;2023-07-13T12:02:26;2.75;;;1.40;;
17854;SDS011;9053;53.358;6.382;2023-07-13T12:05:02;2.72;;;1.30;;
17854;SDS011;9053;53.358;6.382;2023-07-13T12:07:35;2.60;;;1.25;;
17854;SDS011;9053;53.358;6.382;2023-07-13T12:10:15;4.13;;;1.85;;
17854;SDS011;9053;53.358;6.382;2023-07-13T12:12:48;4.15;;;1.60;;
17854;SDS011;9053;53.358;6.382;2023-07-13T12:15:22;4.40;;;1.60;;
17854;SDS011;9053;53.358;6.382;2023-07-13T12:17:53;5.18;;;1.85;;
17854;SDS011;9053;53.358;6.382;2023-07-13T12:20:26;2.38;;;1.45;;
17854;SDS011;9053;53.358;6.382;2023-07-13T12:23:04;4.22;;;1.63;;
17854;SDS011;9053;53.358;6.382;2023-07-13T12:25:37;3.03;;;1.42;;
17854;SDS011;9053;53.358;6.382;2023-07-13T12:28:20;3.47;;;1.33;;
17854;SDS011;9053;53.358;6.382;2023-07-13T12:30:51;3.53;;;1.77;;
17854;SDS011;9053;53.358;6.382;2023-07-13T12:33:28;4.35;;;1.75;;
17854;SDS011;9053;53.358;6.382;2023-07-13T12:36:03;3.35;;;1.67;;
17854;SDS011;9053;53.358;6.382;2023-07-13T12:38:36;5.13;;;1.83;;
17854;SDS011;9053;53.358;6.382;2023-07-13T12:41:07;4.75;;;1.80;;
17854;SDS011;9053;53.358;6.382;2023-07-13T12:43:38;4.43;;;1.83;;
17854;SDS011;9053;53.358;6.382;2023-07-13T12:46:15;4.85;;;2.10;;
17854;SDS011;9053;53.358;6.382;2023-07-13T12:48:52;4.45;;;1.75;;
17854;SDS011;9053;53.358;6.382;2023-07-13T12:51:45;4.72;;;2.00;;
17854;SDS011;9053;53.358;6.382;2023-07-13T12:54:20;2.47;;;1.48;;
17854;SDS011;9053;53.358;6.382;2023-07-13T12:56:50;4.50;;;1.55;;
17854;SDS011;9053;53.358;6.382;2023-07-13T12:59:24;3.15;;;1.88;;
17854;SDS011;9053;53.358;6.382;2023-07-13T13:01:59;3.22;;;1.77;;
17854;SDS011;9053;53.358;6.382;2023-07-13T13:04:30;3.63;;;1.67;;
17854;SDS011;9053;53.358;6.382;2023-07-13T13:07:03;3.58;;;1.45;;
17854;SDS011;9053;53.358;6.382;2023-07-13T13:09:37;3.80;;;1.67;;
17854;SDS011;9053;53.358;6.382;2023-07-13T13:12:07;4.15;;;1.50;;
17854;SDS011;9053;53.358;6.382;2023-07-13T13:14:40;4.45;;;1.40;;
17854;SDS011;9053;53.358;6.382;2023-07-13T13:17:18;4.07;;;1.83;;
17854;SDS011;9053;53.358;6.382;2023-07-13T13:19:51;5.32;;;2.03;;
17854;SDS011;9053;53.358;6.382;2023-07-13T13:22:25;3.53;;;1.95;;
17854;SDS011;9053;53.358;6.382;2023-07-13T13:25:00;5.00;;;1.70;;
17854;SDS011;9053;53.358;6.382;2023-07-13T13:27:32;5.63;;;1.83;;
17854;SDS011;9053;53.358;6.382;2023-07-13T13:30:02;4.68;;;1.80;;
17854;SDS011;9053;53.358;6.382;2023-07-13T13:32:35;3.20;;;1.50;;
17854;SDS011;9053;53.358;6.382;2023-07-13T13:35:08;3.60;;;1.75;;
17854;SDS011;9053;53.358;6.382;2023-07-13T13:37:45;3.88;;;1.60;;
17854;SDS011;9053;53.358;6.382;2023-07-13T13:40:18;3.20;;;1.60;;
17854;SDS011;9053;53.358;6.382;2023-07-13T13:42:49;3.28;;;1.50;;
17854;SDS011;9053;53.358;6.382;2023-07-13T13:45:21;4.38;;;1.88;;
17854;SDS011;9053;53.358;6.382;2023-07-13T13:47:51;4.72;;;1.80;;
17854;SDS011;9053;53.358;6.382;2023-07-13T13:50:22;4.43;;;1.92;;
17854;SDS011;9053;53.358;6.382;2023-07-13T13:52:57;2.80;;;1.40;;
17854;SDS011;9053;53.358;6.382;2023-07-13T13:55:28;4.93;;;1.90;;
17854;SDS011;9053;53.358;6.382;2023-07-13T13:57:58;2.45;;;1.60;;
17854;SDS011;9053;53.358;6.382;2023-07-13T14:00:28;3.17;;;1.67;;
17854;SDS011;9053;53.358;6.382;2023-07-13T14:02:59;2.42;;;1.50;;
17854;SDS011;9053;53.358;6.382;2023-07-13T14:05:29;3.88;;;1.73;;
17854;SDS011;9053;53.358;6.382;2023-07-13T14:08:04;3.67;;;1.50;;
17854;SDS011;9053;53.358;6.382;2023-07-13T14:10:37;4.40;;;1.70;;
17854;SDS011;9053;53.358;6.382;2023-07-13T14:13:14;4.10;;;1.70;;
17854;SDS011;9053;53.358;6.382;2023-07-13T14:15:47;4.05;;;1.50;;
17854;SDS011;9053;53.358;6.382;2023-07-13T14:18:18;4.22;;;1.63;;
17854;SDS011;9053;53.358;6.382;2023-07-13T14:20:51;3.15;;;1.58;;
17854;SDS011;9053;53.358;6.382;2023-07-13T14:23:24;4.55;;;1.80;;
17854;SDS011;9053;53.358;6.382;2023-07-13T14:25:54;7.03;;;1.95;;
17854;SDS011;9053;53.358;6.382;2023-07-13T14:28:24;3.55;;;1.70;;
17854;SDS011;9053;53.358;6.382;2023-07-13T14:30:56;4.93;;;1.77;;
17854;SDS011;9053;53.358;6.382;2023-07-13T14:33:26;2.90;;;1.48;;
17854;SDS011;9053;53.358;6.382;2023-07-13T14:35:56;3.28;;;1.90;;
17854;SDS011;9053;53.358;6.382;2023-07-13T14:38:29;4.10;;;1.90;;
17854;SDS011;9053;53.358;6.382;2023-07-13T14:41:00;3.63;;;2.10;;
17854;SDS011;9053;53.358;6.382;2023-07-13T14:43:31;4.22;;;1.48;;
17854;SDS011;9053;53.358;6.382;2023-07-13T14:46:01;4.82;;;2.13;;
17854;SDS011;9053;53.358;6.382;2023-07-13T14:48:31;3.97;;;1.55;;
17854;SDS011;9053;53.358;6.382;2023-07-13T14:51:01;3.38;;;1.83;;
17854;SDS011;9053;53.358;6.382;2023-07-13T14:53:39;4.60;;;1.73;;
17854;SDS011;9053;53.358;6.382;2023-07-13T14:56:10;5.03;;;1.73;;
17854;SDS011;9053;53.358;6.382;2023-07-13T14:58:41;5.57;;;2.00;;
17854;SDS011;9053;53.358;6.382;2023-07-13T15:01:11;6.13;;;2.05;;
17854;SDS011;9053;53.358;6.382;2023-07-13T15:03:44;5.72;;;2.10;;
17854;SDS011;9053;53.358;6.382;2023-07-13T15:06:16;3.50;;;1.63;;
17854;SDS011;9053;53.358;6.382;2023-07-13T15:08:49;6.93;;;2.10;;
17854;SDS011;9053;53.358;6.382;2023-07-13T15:11:19;5.28;;;1.88;;
17854;SDS011;9053;53.358;6.382;2023-07-13T15:13:49;3.38;;;1.85;;
17854;SDS011;9053;53.358;6.382;2023-07-13T15:16:21;4.40;;;1.90;;
17854;SDS011;9053;53.358;6.382;2023-07-13T15:18:53;3.00;;;1.80;;
17854;SDS011;9053;53.358;6.382;2023-07-13T15:21:25;3.25;;;1.70;;
17854;SDS011;9053;53.358;6.382;2023-07-13T15:24:04;3.55;;;1.80;;
17854;SDS011;9053;53.358;6.382;2023-07-13T15:26:37;2.97;;;1.80;;
17854;SDS011;9053;53.358;6.382;2023-07-13T15:29:10;3.70;;;1.70;;
17854;SDS011;9053;53.358;6.382;2023-07-13T15:31:40;5.18;;;1.92;;
17854;SDS011;9053;53.358;6.382;2023-07-13T15:34:12;7.57;;;2.30;;
17854;SDS011;9053;53.358;6.382;2023-07-13T15:36:44;3.47;;;1.70;;
17854;SDS011;9053;53.358;6.382;2023-07-13T15:39:16;3.45;;;1.88;;
17854;SDS011;9053;53.358;6.382;2023-07-13T15:41:47;2.72;;;1.60;;